KARR/ARR METAR and TAF weather

Enter ICAO airport designator
Station Type Date Time Source
KARR METAR 2019/12/05 22:52 UTC NOAA

KARR 052252Z 13003KT 10SM CLR 04/01 A2995 RMK AO2 SLP148 T00440006


Station Type Date Time Source
KARR Decoded METAR 2019/12/05 22:52 UTC NOAA

CHICAGO AURORA MUNICIPAL, IL, United States (KARR) 41-46N 088-28W 215M
Dec 05, 2019 - 05:52 PM EST / 2019.12.05 2252 UTC
Wind: from the SE (130 degrees) at 3 MPH (3 KT):0
Visibility: 10 mile(s):0
Sky conditions: clear
Temperature: 39.9 F (4.4 C)
Dew Point: 33.1 F (0.6 C)
Relative Humidity: 76%
Pressure (altimeter): 29.95 in. Hg (1014 hPa)
ob: KARR 052252Z 13003KT 10SM CLR 04/01 A2995 RMK AO2 SLP148 T00440006
cycle: 23

Station Type Date Time Source
KARR TAF UTC NOAA

Error!

Example: see airport list